createdAt,value
2023-03-28T00:01:12.697Z,17.89
2023-03-28T00:03:41.501Z,17.79
2023-03-28T00:06:12.656Z,17.74
2023-03-28T00:08:41.493Z,17.64
2023-03-28T00:11:27.620Z,17.40
2023-03-28T00:14:01.620Z,17.27
2023-03-28T00:16:35.118Z,17.28
2023-03-28T00:19:08.718Z,17.29
2023-03-28T00:21:42.337Z,17.26
2023-03-28T00:24:15.588Z,17.17
2023-03-28T00:26:45.448Z,17.17
2023-03-28T00:29:21.730Z,17.12
2023-03-28T00:31:52.267Z,17.11
2023-03-28T00:34:20.546Z,17.10
2023-03-28T00:36:48.813Z,17.13
2023-03-28T00:39:17.336Z,17.08
2023-03-28T00:41:46.443Z,17.10
2023-03-28T00:44:49.836Z,17.09
2023-03-28T00:47:31.583Z,17.03
2023-03-28T00:50:06.226Z,16.96
2023-03-28T00:52:42.466Z,16.91
2023-03-28T00:55:18.545Z,16.98
2023-03-28T00:57:48.995Z,16.98
2023-03-28T01:00:19.711Z,16.89
2023-03-28T01:02:54.030Z,16.78
2023-03-28T01:05:27.883Z,16.68
2023-03-28T01:08:31.248Z,16.49
2023-03-28T01:11:00.199Z,16.34
2023-03-28T01:13:32.900Z,16.24
2023-03-28T01:16:03.767Z,16.14
2023-03-28T01:18:35.649Z,16.06
2023-03-28T01:21:06.867Z,16.03
2023-03-28T01:24:11.877Z,15.97
2023-03-28T01:26:41.473Z,15.96
2023-03-28T01:29:15.498Z,16.00
2023-03-28T01:32:05.213Z,16.05
2023-03-28T01:34:47.858Z,16.08
2023-03-28T01:37:47.866Z,16.07
2023-03-28T01:40:48.430Z,16.02
2023-03-28T01:43:40.262Z,15.94
2023-03-28T01:46:20.218Z,15.86
2023-03-28T01:48:57.159Z,15.85
2023-03-28T01:51:54.834Z,15.84
2023-03-28T01:54:59.146Z,15.80
2023-03-28T01:57:40.241Z,15.72
2023-03-28T02:00:57.548Z,15.61
2023-03-28T02:03:29.768Z,15.58
2023-03-28T02:06:00.010Z,15.55
2023-03-28T02:08:32.709Z,15.53
2023-03-28T02:11:01.300Z,15.47
2023-03-28T02:13:35.398Z,15.43
2023-03-28T02:16:06.493Z,15.41
2023-03-28T02:18:39.247Z,15.38
2023-03-28T02:21:14.563Z,15.34
2023-03-28T02:23:55.095Z,15.30
2023-03-28T02:26:26.550Z,15.27
2023-03-28T02:28:57.980Z,15.22
2023-03-28T02:31:26.733Z,15.21
2023-03-28T02:33:55.097Z,15.18
2023-03-28T02:36:25.895Z,15.18
2023-03-28T02:39:13.933Z,15.13
2023-03-28T02:42:06.392Z,15.08
2023-03-28T02:44:54.303Z,15.02
2023-03-28T02:47:28.524Z,14.96
2023-03-28T02:50:08.181Z,14.92
2023-03-28T02:52:51.494Z,14.87
2023-03-28T02:55:26.381Z,14.85
2023-03-28T02:58:11.713Z,14.77
2023-03-28T03:00:40.603Z,14.71
2023-03-28T03:03:12.184Z,14.65
2023-03-28T03:05:40.623Z,14.60
2023-03-28T03:08:09.195Z,14.52
2023-03-28T03:10:37.424Z,14.46
2023-03-28T03:13:05.718Z,14.39
2023-03-28T03:15:36.329Z,14.33
2023-03-28T03:18:05.355Z,14.27
2023-03-28T03:20:34.926Z,14.23
2023-03-28T03:23:03.184Z,14.20
2023-03-28T03:25:32.166Z,14.14
2023-03-28T03:28:00.562Z,14.12
2023-03-28T03:30:29.020Z,14.05
2023-03-28T03:32:57.444Z,14.02
2023-03-28T03:35:25.712Z,14.00
2023-03-28T03:37:53.906Z,13.95
2023-03-28T03:40:22.111Z,13.92
2023-03-28T03:42:50.443Z,13.90
2023-03-28T03:45:18.770Z,13.88
2023-03-28T03:47:47.042Z,13.86
2023-03-28T03:50:15.299Z,13.83
2023-03-28T03:52:43.933Z,13.82
2023-03-28T03:55:12.416Z,13.80
2023-03-28T03:57:40.617Z,13.79
2023-03-28T04:00:12.861Z,13.76
2023-03-28T04:02:41.503Z,13.75
2023-03-28T04:05:10.164Z,13.75
2023-03-28T04:07:39.333Z,13.75
2023-03-28T04:10:08.187Z,13.69
2023-03-28T04:12:36.393Z,13.68
2023-03-28T04:15:05.050Z,13.66
2023-03-28T04:17:35.831Z,13.63
2023-03-28T04:20:14.572Z,13.60
2023-03-28T04:22:45.483Z,13.58
2023-03-28T04:25:15.118Z,13.56
2023-03-28T04:27:47.832Z,13.56
2023-03-28T04:30:18.580Z,13.52
2023-03-28T04:32:51.270Z,13.49
2023-03-28T04:35:19.693Z,13.42
2023-03-28T04:37:50.128Z,13.38
2023-03-28T04:40:18.574Z,13.37
2023-03-28T04:42:46.924Z,13.29
2023-03-28T04:45:17.615Z,13.23
2023-03-28T04:47:46.845Z,13.15
2023-03-28T04:50:15.121Z,13.05
2023-03-28T04:52:43.636Z,13.03
2023-03-28T04:55:11.862Z,13.04
2023-03-28T04:57:40.160Z,13.00
2023-03-28T05:00:13.768Z,12.92
2023-03-28T05:02:42.023Z,12.87
2023-03-28T05:05:10.577Z,12.82
2023-03-28T05:07:38.801Z,12.75
2023-03-28T05:10:08.439Z,12.76
2023-03-28T05:12:36.799Z,12.69
2023-03-28T05:15:06.378Z,12.59
2023-03-28T05:17:34.672Z,12.52
2023-03-28T05:20:02.848Z,12.45
2023-03-28T05:22:31.070Z,12.40
2023-03-28T05:24:59.349Z,12.34
2023-03-28T05:27:28.030Z,12.28
2023-03-28T05:29:57.068Z,12.25
2023-03-28T05:32:27.720Z,12.27
2023-03-28T05:34:56.501Z,12.22
2023-03-28T05:37:24.768Z,12.13
2023-03-28T05:39:56.998Z,12.10
2023-03-28T05:42:25.331Z,12.04
2023-03-28T05:44:53.527Z,12.01
2023-03-28T05:47:21.786Z,11.94
2023-03-28T05:49:49.987Z,11.86
2023-03-28T05:52:18.472Z,11.79
2023-03-28T05:54:50.351Z,11.76
2023-03-28T05:57:20.620Z,11.73
2023-03-28T05:59:49.260Z,11.69
2023-03-28T06:02:19.723Z,11.64
2023-03-28T06:04:48.430Z,11.59
2023-03-28T06:07:21.224Z,11.57
2023-03-28T06:09:53.960Z,11.54
2023-03-28T06:12:22.204Z,11.54
2023-03-28T06:14:50.510Z,11.57
2023-03-28T06:17:19.077Z,11.57
2023-03-28T06:19:47.391Z,11.59
2023-03-28T06:22:15.673Z,11.63
2023-03-28T06:24:44.049Z,11.59
2023-03-28T06:27:13.367Z,11.59
2023-03-28T06:29:41.814Z,11.60
2023-03-28T06:32:10.006Z,11.64
2023-03-28T06:34:38.205Z,11.64
2023-03-28T06:37:06.476Z,11.64
2023-03-28T06:39:34.713Z,11.57
2023-03-28T06:42:04.177Z,11.53
2023-03-28T06:44:32.687Z,11.51
2023-03-28T06:47:00.855Z,11.48
2023-03-28T06:49:29.065Z,11.48
2023-03-28T06:51:57.269Z,11.49
2023-03-28T06:54:26.014Z,11.48
2023-03-28T06:56:54.291Z,11.44
2023-03-28T06:59:22.539Z,11.41
2023-03-28T07:01:50.744Z,11.39
2023-03-28T07:04:18.998Z,11.38
2023-03-28T07:06:47.743Z,11.36
2023-03-28T07:09:16.196Z,11.34
2023-03-28T07:11:44.390Z,11.28
2023-03-28T07:14:12.656Z,11.26
2023-03-28T07:16:41.175Z,11.26
2023-03-28T07:19:09.517Z,11.25
2023-03-28T07:21:37.931Z,11.22
2023-03-28T07:24:06.411Z,11.19
2023-03-28T07:26:35.012Z,11.17
2023-03-28T07:29:03.193Z,11.12
2023-03-28T07:31:31.863Z,11.08
2023-03-28T07:34:00.312Z,11.05
2023-03-28T07:36:29.937Z,11.05
2023-03-28T07:38:58.179Z,11.01
2023-03-28T07:41:27.384Z,10.98
2023-03-28T07:43:55.562Z,10.99
2023-03-28T07:46:24.766Z,10.97
2023-03-28T07:48:52.967Z,10.97
2023-03-28T07:51:21.195Z,10.98
2023-03-28T07:53:49.450Z,10.97
2023-03-28T07:56:17.922Z,10.93
2023-03-28T07:58:46.980Z,10.89
2023-03-28T08:01:15.450Z,10.90
2023-03-28T08:03:44.232Z,10.89
2023-03-28T08:06:28.547Z,10.87
2023-03-28T08:08:59.566Z,10.89
2023-03-28T08:11:30.843Z,10.88
2023-03-28T08:13:59.244Z,10.88
2023-03-28T08:16:27.550Z,10.88
2023-03-28T08:19:09.307Z,10.87
2023-03-28T08:21:38.973Z,10.87
2023-03-28T08:24:08.753Z,10.86
2023-03-28T08:26:38.364Z,10.88
2023-03-28T08:29:07.204Z,10.88
2023-03-28T08:31:35.531Z,10.90
2023-03-28T08:34:03.852Z,10.91
2023-03-28T08:36:32.142Z,10.89
2023-03-28T08:39:05.322Z,10.92
2023-03-28T08:41:58.290Z,10.94
2023-03-28T08:45:04.260Z,10.98
2023-03-28T08:47:55.892Z,11.00
2023-03-28T08:50:35.514Z,10.98
2023-03-28T08:53:05.220Z,10.97
2023-03-28T08:55:43.586Z,10.93
2023-03-28T08:58:22.363Z,10.93
2023-03-28T09:00:52.864Z,10.92
2023-03-28T09:03:24.115Z,10.93
2023-03-28T09:06:23.081Z,10.89
2023-03-28T09:09:13.922Z,10.87
2023-03-28T09:11:51.451Z,10.88
2023-03-28T09:14:34.713Z,10.92
2023-03-28T09:17:23.566Z,10.95
2023-03-28T09:20:20.232Z,10.97
2023-03-28T09:23:07.181Z,10.99
2023-03-28T09:26:01.505Z,11.02
2023-03-28T09:28:58.367Z,11.09
2023-03-28T09:31:33.966Z,11.12
2023-03-28T09:34:04.172Z,11.12
2023-03-28T09:36:45.674Z,11.12
2023-03-28T09:40:09.130Z,11.17
2023-03-28T09:42:43.418Z,11.15
2023-03-28T09:45:42.271Z,11.16
2023-03-28T09:48:26.532Z,11.13
2023-03-28T09:50:54.850Z,11.13
2023-03-28T09:53:31.803Z,11.12
2023-03-28T09:56:12.351Z,11.12
2023-03-28T09:58:51.888Z,11.13
2023-03-28T10:01:40.005Z,11.11
2023-03-28T10:04:20.125Z,11.13
2023-03-28T10:06:49.232Z,11.16
2023-03-28T10:09:24.677Z,11.17
2023-03-28T10:12:00.676Z,11.18
2023-03-28T10:14:39.979Z,11.19
2023-03-28T10:17:22.073Z,11.17
2023-03-28T10:19:50.667Z,11.18
2023-03-28T10:22:29.235Z,11.20
2023-03-28T10:24:58.057Z,11.22
2023-03-28T10:27:35.829Z,11.19
2023-03-28T10:30:34.293Z,11.20
2023-03-28T10:33:18.500Z,11.20
2023-03-28T10:35:56.113Z,11.20
2023-03-28T10:38:26.845Z,11.23
2023-03-28T10:41:08.617Z,11.22
2023-03-28T10:43:39.836Z,11.20
2023-03-28T10:46:33.280Z,11.17
2023-03-28T10:49:14.952Z,11.13
2023-03-28T10:51:44.648Z,11.16
2023-03-28T10:54:32.895Z,11.16
2023-03-28T10:57:45.513Z,11.19
2023-03-28T11:00:16.586Z,11.21
2023-03-28T11:03:05.774Z,11.25
2023-03-28T11:05:54.918Z,11.24
2023-03-28T11:08:54.084Z,11.24
2023-03-28T11:11:31.262Z,11.27
2023-03-28T11:14:17.198Z,11.26
2023-03-28T11:17:12.596Z,11.24
2023-03-28T11:19:55.451Z,11.25
2023-03-28T11:22:32.368Z,11.27
2023-03-28T11:25:19.042Z,11.25
2023-03-28T11:27:50.277Z,11.23
2023-03-28T11:30:27.618Z,11.23
2023-03-28T11:33:25.787Z,11.22
2023-03-28T11:36:02.572Z,11.21
2023-03-28T11:38:52.755Z,11.22
2023-03-28T11:41:25.229Z,11.23
2023-03-28T11:44:02.215Z,11.25
2023-03-28T11:46:43.643Z,11.24
2023-03-28T11:49:35.790Z,11.24
2023-03-28T11:52:34.892Z,11.26
2023-03-28T11:55:23.317Z,11.25
2023-03-28T11:57:54.074Z,11.20
2023-03-28T12:00:42.436Z,11.18
2023-03-28T12:03:24.650Z,11.19
2023-03-28T12:06:04.559Z,11.17
2023-03-28T12:08:45.927Z,11.14
2023-03-28T12:11:25.102Z,11.14
2023-03-28T12:14:11.616Z,11.15
2023-03-28T12:16:50.324Z,11.15
2023-03-28T12:19:38.832Z,11.15
2023-03-28T12:22:45.551Z,11.14
2023-03-28T12:25:56.733Z,11.17
2023-03-28T12:28:39.657Z,11.18
2023-03-28T12:31:17.276Z,11.15
2023-03-28T12:34:09.012Z,11.14
2023-03-28T12:36:53.391Z,11.17
2023-03-28T12:39:42.686Z,11.22
2023-03-28T12:42:16.215Z,11.23
2023-03-28T12:44:53.078Z,11.23
2023-03-28T12:47:39.793Z,11.20
2023-03-28T12:50:15.221Z,11.19
2023-03-28T12:52:47.428Z,11.19
2023-03-28T12:55:27.795Z,11.19
2023-03-28T12:58:23.651Z,11.16
2023-03-28T13:01:08.912Z,11.17
2023-03-28T13:04:14.079Z,11.13
2023-03-28T13:06:54.423Z,11.12
2023-03-28T13:09:33.929Z,11.12
2023-03-28T13:12:31.093Z,11.09
2023-03-28T13:15:07.535Z,11.08
2023-03-28T13:17:38.713Z,11.03
2023-03-28T13:20:18.789Z,11.01
2023-03-28T13:23:02.420Z,11.00
2023-03-28T13:25:35.843Z,11.00
2023-03-28T13:28:13.055Z,10.99
2023-03-28T13:30:47.519Z,11.01
2023-03-28T13:33:28.987Z,11.01
2023-03-28T13:36:00.370Z,11.03
2023-03-28T13:38:28.755Z,11.06
2023-03-28T13:41:00.914Z,11.09
2023-03-28T13:43:47.938Z,11.08
2023-03-28T13:46:18.225Z,11.13
2023-03-28T13:49:10.747Z,11.16
2023-03-28T13:51:54.350Z,11.16
2023-03-28T13:54:23.561Z,11.15
2023-03-28T13:56:54.053Z,11.14
2023-03-28T13:59:38.139Z,11.11
2023-03-28T14:02:33.522Z,11.10
2023-03-28T14:05:16.577Z,11.13
2023-03-28T14:07:45.453Z,11.16
2023-03-28T14:10:34.808Z,11.19
2023-03-28T14:13:09.101Z,11.17
2023-03-28T14:15:42.844Z,11.16
2023-03-28T14:18:36.965Z,11.20
2023-03-28T14:21:07.544Z,11.22
2023-03-28T14:23:41.347Z,11.25
2023-03-28T14:26:18.222Z,11.25
2023-03-28T14:28:47.620Z,11.25
2023-03-28T14:31:33.350Z,11.26
2023-03-28T14:34:13.394Z,11.24
2023-03-28T14:37:07.018Z,11.22
2023-03-28T14:39:38.761Z,11.20
2023-03-28T14:42:13.343Z,11.19
2023-03-28T14:44:55.738Z,11.18
2023-03-28T14:47:34.180Z,11.20
2023-03-28T14:50:04.504Z,11.21
2023-03-28T14:52:37.408Z,11.25
2023-03-28T14:55:06.711Z,11.29
2023-03-28T14:57:35.677Z,11.33
2023-03-28T15:00:13.317Z,11.38
2023-03-28T15:02:42.997Z,11.46
2023-03-28T15:05:15.948Z,11.56
2023-03-28T15:07:45.467Z,11.64
2023-03-28T15:10:15.040Z,11.70
2023-03-28T15:12:49.602Z,11.75
2023-03-28T15:15:28.872Z,11.79
2023-03-28T15:17:59.271Z,11.84
2023-03-28T15:20:32.984Z,11.86
2023-03-28T15:23:04.326Z,11.89
2023-03-28T15:25:33.825Z,11.93
2023-03-28T15:28:06.274Z,11.96
2023-03-28T15:30:37.065Z,12.01
2023-03-28T15:33:06.779Z,12.02
2023-03-28T15:35:44.389Z,12.05
2023-03-28T15:38:29.099Z,12.10
2023-03-28T15:41:19.935Z,12.08
2023-03-28T15:43:54.130Z,12.08
2023-03-28T15:46:28.072Z,12.07
2023-03-28T15:49:03.424Z,12.09
2023-03-28T15:51:32.950Z,12.10
2023-03-28T15:54:01.472Z,12.09
2023-03-28T15:56:32.827Z,12.04
2023-03-28T15:59:11.673Z,11.99
2023-03-28T16:01:39.923Z,11.93
2023-03-28T16:04:31.193Z,11.91
2023-03-28T16:07:14.355Z,11.89
2023-03-28T16:09:44.086Z,11.87
2023-03-28T16:12:16.859Z,11.90
2023-03-28T16:14:51.955Z,11.99
2023-03-28T16:17:30.402Z,12.11
2023-03-28T16:19:59.261Z,12.22
2023-03-28T16:22:27.813Z,12.27
2023-03-28T16:24:56.332Z,12.28
2023-03-28T16:27:25.037Z,12.29
2023-03-28T16:29:53.478Z,12.29
2023-03-28T16:32:24.727Z,12.28
2023-03-28T16:34:53.198Z,12.24
2023-03-28T16:37:22.706Z,12.13
2023-03-28T16:39:50.916Z,12.05
2023-03-28T16:42:21.408Z,12.01
2023-03-28T16:44:49.641Z,11.94
2023-03-28T16:47:17.887Z,11.88
2023-03-28T16:49:46.467Z,11.85
2023-03-28T16:52:14.724Z,11.88
2023-03-28T16:54:43.019Z,11.88
2023-03-28T16:57:11.374Z,11.92
2023-03-28T16:59:39.591Z,11.96
2023-03-28T17:02:08.541Z,12.00
2023-03-28T17:04:36.930Z,11.98
2023-03-28T17:07:05.160Z,11.93
2023-03-28T17:09:35.430Z,11.87
2023-03-28T17:12:03.663Z,11.71
2023-03-28T17:14:31.872Z,11.52
2023-03-28T17:17:00.225Z,11.36
2023-03-28T17:19:29.824Z,11.19
2023-03-28T17:21:58.077Z,11.00
2023-03-28T17:24:26.363Z,10.82
2023-03-28T17:26:54.874Z,10.68
2023-03-28T17:29:23.736Z,10.61
2023-03-28T17:31:53.509Z,10.58
2023-03-28T17:34:22.270Z,10.55
2023-03-28T17:36:52.300Z,10.52
2023-03-28T17:39:20.700Z,10.53
2023-03-28T17:41:48.940Z,10.56
2023-03-28T17:44:17.597Z,10.57
2023-03-28T17:46:47.640Z,10.60
2023-03-28T17:49:17.727Z,10.62
2023-03-28T17:51:46.612Z,10.66
2023-03-28T17:54:15.438Z,10.67
2023-03-28T17:56:44.178Z,10.66
2023-03-28T17:59:13.166Z,10.67
2023-03-28T18:01:41.784Z,10.69
2023-03-28T18:04:09.995Z,10.74
2023-03-28T18:06:38.820Z,10.80
2023-03-28T18:09:07.170Z,10.87
2023-03-28T18:11:36.661Z,10.92
2023-03-28T18:14:05.409Z,10.97
2023-03-28T18:16:34.172Z,11.02
2023-03-28T18:19:02.514Z,11.10
2023-03-28T18:21:30.969Z,11.11
2023-03-28T18:23:59.222Z,11.11
2023-03-28T18:26:29.521Z,11.13
2023-03-28T18:28:57.741Z,11.14
2023-03-28T18:31:28.438Z,11.15
2023-03-28T18:33:58.071Z,11.13
2023-03-28T18:36:26.968Z,11.11
2023-03-28T18:38:56.766Z,11.07
2023-03-28T18:41:25.983Z,11.02
2023-03-28T18:43:54.245Z,10.98
2023-03-28T18:46:22.538Z,10.91
2023-03-28T18:48:51.345Z,10.82
2023-03-28T18:51:21.240Z,10.80
2023-03-28T18:53:49.616Z,10.76
2023-03-28T18:56:19.259Z,10.81
2023-03-28T18:58:49.921Z,10.80
2023-03-28T19:01:19.319Z,10.80
2023-03-28T19:03:48.051Z,10.81
2023-03-28T19:06:17.055Z,10.84
2023-03-28T19:08:45.980Z,10.79
2023-03-28T19:11:20.511Z,10.73
2023-03-28T19:13:48.836Z,10.73
2023-03-28T19:16:20.091Z,10.73
2023-03-28T19:18:48.925Z,10.77
2023-03-28T19:21:20.433Z,10.85
2023-03-28T19:23:52.556Z,10.90
2023-03-28T19:26:21.131Z,10.93
2023-03-28T19:28:50.410Z,11.00
2023-03-28T19:31:18.919Z,11.02
2023-03-28T19:33:47.278Z,11.08
2023-03-28T19:36:15.658Z,11.11
2023-03-28T19:38:44.229Z,11.13
2023-03-28T19:41:23.200Z,11.23
2023-03-28T19:43:53.359Z,11.23
2023-03-28T19:46:29.521Z,11.24
2023-03-28T19:49:02.061Z,11.24
2023-03-28T19:51:30.611Z,11.22
2023-03-28T19:53:58.866Z,11.19
2023-03-28T19:56:27.858Z,11.21
2023-03-28T19:58:56.222Z,11.25
2023-03-28T20:01:24.487Z,11.28
2023-03-28T20:03:53.874Z,11.33
2023-03-28T20:06:23.426Z,11.40
2023-03-28T20:08:52.353Z,11.44
2023-03-28T20:11:20.664Z,11.53
2023-03-28T20:13:49.225Z,11.60
2023-03-28T20:16:17.848Z,11.69
2023-03-28T20:18:47.361Z,11.75
2023-03-28T20:21:15.944Z,11.79
2023-03-28T20:23:44.233Z,11.80
2023-03-28T20:26:17.622Z,11.87
2023-03-28T20:28:50.633Z,11.94
2023-03-28T20:31:19.729Z,11.96
2023-03-28T20:33:47.974Z,11.97
2023-03-28T20:36:16.858Z,11.97
2023-03-28T20:38:45.444Z,12.00
2023-03-28T20:41:18.960Z,11.96
2023-03-28T20:43:50.857Z,11.83
2023-03-28T20:46:20.063Z,11.78
2023-03-28T20:48:53.483Z,11.78
2023-03-28T20:51:23.504Z,11.77
2023-03-28T20:53:57.823Z,11.75
2023-03-28T20:56:28.331Z,11.66
2023-03-28T20:59:01.200Z,11.63
2023-03-28T21:01:30.863Z,11.62
2023-03-28T21:04:01.337Z,11.59
2023-03-28T21:06:34.269Z,11.56
2023-03-28T21:09:06.393Z,11.53
2023-03-28T21:11:37.083Z,11.50
2023-03-28T21:14:07.145Z,11.44
2023-03-28T21:16:35.748Z,11.49
2023-03-28T21:19:04.776Z,11.53
2023-03-28T21:21:34.802Z,11.52
2023-03-28T21:24:04.634Z,11.54
2023-03-28T21:26:33.255Z,11.63
2023-03-28T21:29:01.679Z,11.66
2023-03-28T21:31:30.690Z,11.70
2023-03-28T21:34:00.116Z,11.74
2023-03-28T21:36:28.972Z,11.75
2023-03-28T21:38:58.129Z,11.76
2023-03-28T21:41:28.171Z,11.68
2023-03-28T21:43:56.509Z,11.64
2023-03-28T21:46:25.059Z,11.62
2023-03-28T21:48:53.425Z,11.62
2023-03-28T21:51:21.845Z,11.63
2023-03-28T21:53:50.096Z,11.63
2023-03-28T21:56:18.403Z,11.63
2023-03-28T21:58:46.603Z,11.57
2023-03-28T22:01:18.330Z,11.43
2023-03-28T22:03:48.108Z,11.34
2023-03-28T22:06:18.925Z,11.18
2023-03-28T22:08:52.990Z,11.07
2023-03-28T22:11:28.476Z,11.03
2023-03-28T22:14:06.203Z,10.94
2023-03-28T22:16:40.064Z,10.89
2023-03-28T22:19:12.251Z,10.88
2023-03-28T22:21:40.506Z,10.82
2023-03-28T22:24:13.716Z,10.79
2023-03-28T22:26:43.195Z,10.75
2023-03-28T22:29:12.555Z,10.72
2023-03-28T22:31:41.059Z,10.74
2023-03-28T22:34:09.634Z,10.76
2023-03-28T22:36:37.977Z,10.74
2023-03-28T22:39:08.232Z,10.69
2023-03-28T22:41:36.476Z,10.68
2023-03-28T22:44:04.997Z,10.63
2023-03-28T22:46:33.290Z,10.61
2023-03-28T22:49:01.648Z,10.65
2023-03-28T22:51:30.624Z,10.61
2023-03-28T22:54:02.554Z,10.61
2023-03-28T22:56:31.514Z,10.59
2023-03-28T22:59:01.912Z,10.55
2023-03-28T23:01:30.277Z,10.58
2023-03-28T23:03:58.911Z,10.61
2023-03-28T23:06:27.983Z,10.61
2023-03-28T23:08:56.235Z,10.66
2023-03-28T23:11:24.502Z,10.69
2023-03-28T23:13:52.754Z,10.63
2023-03-28T23:16:21.015Z,10.60
2023-03-28T23:18:50.830Z,10.51
2023-03-28T23:21:21.043Z,10.47
2023-03-28T23:23:49.385Z,10.49
2023-03-28T23:26:18.666Z,10.48
2023-03-28T23:28:47.240Z,10.51
2023-03-28T23:31:15.583Z,10.52
2023-03-28T23:33:47.058Z,10.64
2023-03-28T23:36:16.409Z,10.65
2023-03-28T23:38:44.857Z,10.71
2023-03-28T23:41:13.171Z,10.73
2023-03-28T23:43:41.594Z,10.71
2023-03-28T23:46:09.977Z,10.67
2023-03-28T23:48:38.249Z,10.76
2023-03-28T23:51:06.938Z,10.82
2023-03-28T23:53:35.187Z,10.83
2023-03-28T23:56:04.496Z,10.83
2023-03-28T23:58:32.797Z,10.85
